Sunday, March 24, 2019, 7:34 PM EDT
Back to Local

KBGR, Bangor Int'l Airport

Location: Bangor, ME, United States Lat: 44.8
Local Time: 7:34 PM EDT (23:34 GMT) Lon: -68.817
Time Zone: US/Eastern Elev: 193 ft

Show me the last for .
Show Decoded

2019-03-24 18:53 METAR KBGR 242253Z 30004KT 10SM FEW070 SCT100 BKN250 06/M04 A2988 RMK AO2 SLP119
                 T00561044 =
2019-03-24 17:53 METAR KBGR 242153Z 32007KT 10SM FEW070 SCT100 OVC250 08/M04 A2985 RMK AO2 SLP110
                 BINOVC T00781044 =
2019-03-24 16:53 METAR KBGR 242053Z 28008KT 10SM SCT070 BKN100 OVC250 09/M06 A2985 RMK AO2 SLP108
                 BINOVC T00891061 53000 =
2019-03-24 15:53 METAR KBGR 241953Z 26008G14KT 240V300 10SM FEW060 SCT100 OVC250 09/M06 A2984 RMK
                 AO2 SLP105 BINOVC T00941061 =
2019-03-24 14:53 METAR KBGR 241853Z 28012KT 10SM SCT100 OVC250 09/M07 A2985 RMK AO2 SLP107
                 T00891067 =
2019-03-24 13:53 METAR KBGR 241753Z 28010G16KT 10SM FEW090 BKN250 09/M07 A2985 RMK AO2 SLP107
                 T00891072 10089 20000 56014 =
2019-03-24 12:53 METAR KBGR 241653Z 25012G21KT 10SM FEW250 08/M07 A2985 RMK AO2 SLP108 T00781067
                 =
2019-03-24 11:53 METAR KBGR 241553Z 23008KT 10SM FEW250 06/M07 A2987 RMK AO2 SLP116 T00611072 =
2019-03-24 10:53 METAR KBGR 241453Z 24010KT 10SM FEW150 04/M08 A2989 RMK AO2 SLP122 T00441083
                 58003 =
2019-03-24 09:53 METAR KBGR 241353Z 28008KT 240V300 10SM CLR 03/M10 A2989 RMK AO2 SLP123
                 T00331100 =
2019-03-24 08:53 METAR KBGR 241253Z 24008KT 10SM CLR 02/M11 A2990 RMK AO2 SLP125 T00171106 =
2019-03-24 07:53 METAR KBGR 241153Z 23006KT 10SM CLR 00/M11 A2990 RMK AO2 SLP125 T00001111 10000
                 21017 53016 =
2019-03-24 06:53 METAR KBGR 241053Z 22003KT 10SM FEW200 M02/M13 A2988 RMK AO2 SLP120 T10171128 =
2019-03-24 05:53 METAR KBGR 240953Z 26005KT 10SM FEW180 M01/M13 A2986 RMK AO2 SLP114 T10061133 =
2019-03-24 04:53 METAR KBGR 240853Z 26005KT 10SM CLR M01/M12 A2985 RMK AO2 SLP109 T10111122 53013
                 =
2019-03-24 03:53 METAR KBGR 240753Z 32003KT 10SM CLR M01/M12 A2983 RMK AO2 SLP103 T10111122 =
2019-03-24 02:53 METAR KBGR 240653Z 28006KT 10SM CLR M01/M11 A2982 RMK AO2 SLP100 T10111111 =
2019-03-24 01:53 METAR KBGR 240553Z 26006G14KT 10SM CLR M01/M11 A2981 RMK AO2 SLP096 T10061111
                 10028 21011 51023 =
2019-03-24 00:53 METAR KBGR 240453Z 30008KT 10SM CLR M01/M11 A2979 RMK AO2 SLP089 T10061106
                 400671011 =
2019-03-23 23:53 METAR KBGR 240353Z 28005KT 10SM CLR M01/M09 A2977 RMK AO2 SLP084 T10061094 =
2019-03-23 22:53 METAR KBGR 240253Z 27008KT 10SM CLR M01/M08 A2974 RMK AO2 SLP073 T10061078 51035
                 =
2019-03-23 21:53 METAR KBGR 240153Z VRB03KT 10SM FEW050 00/M07 A2971 RMK AO2 SLP062 T00001067 =
2019-03-23 20:53 METAR KBGR 240053Z 30011G19KT 10SM FEW050 02/M06 A2968 RMK AO2 SLP051 T00171061
                 =
2019-03-23 19:53 METAR KBGR 232353Z 29008G20KT 270V330 10SM SCT048 BKN070 03/M04 A2964 RMK AO2
                 SLP038 T00281044 10067 20028 51052 =

Support USWX by starting your Amazon purchase here.